createdAt,value
2023-05-04T00:01:06.307Z,35.40
2023-05-04T00:03:47.087Z,35.40
2023-05-04T00:06:18.286Z,35.20
2023-05-04T00:08:48.606Z,35.40
2023-05-04T00:11:25.616Z,35.30
2023-05-04T00:13:59.234Z,35.20
2023-05-04T00:16:31.009Z,35.00
2023-05-04T00:19:00.820Z,35.00
2023-05-04T00:21:31.273Z,35.10
2023-05-04T00:24:01.956Z,35.10
2023-05-04T00:26:31.583Z,34.90
2023-05-04T00:29:07.105Z,35.10
2023-05-04T00:31:36.692Z,34.90
2023-05-04T00:34:05.363Z,35.10
2023-05-04T00:36:34.014Z,35.20
2023-05-04T00:39:13.885Z,34.90
2023-05-04T00:41:44.754Z,35.10
2023-05-04T00:44:14.113Z,35.20
2023-05-04T00:46:44.007Z,34.90
2023-05-04T00:49:12.690Z,35.40
2023-05-04T00:51:54.107Z,35.80
2023-05-04T00:54:24.210Z,35.50
2023-05-04T00:56:56.685Z,35.50
2023-05-04T00:59:26.149Z,35.50
2023-05-04T01:01:55.636Z,35.40
2023-05-04T01:04:24.020Z,35.40
2023-05-04T01:07:03.482Z,35.30
2023-05-04T01:09:38.066Z,35.60
2023-05-04T01:12:22.611Z,35.80
2023-05-04T01:14:55.698Z,35.30
2023-05-04T01:17:25.158Z,35.50
2023-05-04T01:19:59.271Z,35.50
2023-05-04T01:22:48.602Z,35.40
2023-05-04T01:25:50.489Z,35.40
2023-05-04T01:28:28.646Z,35.40
2023-05-04T01:31:00.518Z,35.70
2023-05-04T01:33:38.780Z,35.60
2023-05-04T01:36:08.981Z,35.40
2023-05-04T01:38:59.746Z,35.50
2023-05-04T01:41:41.537Z,35.70
2023-05-04T01:44:29.544Z,35.20
2023-05-04T01:47:17.474Z,35.50
2023-05-04T01:50:06.645Z,35.70
2023-05-04T01:52:54.637Z,35.70
2023-05-04T01:55:43.695Z,35.50
2023-05-04T01:58:15.367Z,35.40
2023-05-04T02:00:43.570Z,36.00
2023-05-04T02:03:12.225Z,36.30
2023-05-04T02:05:40.781Z,36.80
2023-05-04T02:08:09.384Z,37.40
2023-05-04T02:10:37.524Z,37.40
2023-05-04T02:13:07.233Z,37.80
2023-05-04T02:15:35.511Z,38.20
2023-05-04T02:18:03.860Z,38.30
2023-05-04T02:20:32.121Z,39.00
2023-05-04T02:23:00.564Z,38.40
2023-05-04T02:25:28.835Z,38.50
2023-05-04T02:27:57.037Z,38.20
2023-05-04T02:30:26.703Z,37.90
2023-05-04T02:32:55.151Z,37.90
2023-05-04T02:35:24.016Z,38.00
2023-05-04T02:37:52.242Z,37.90
2023-05-04T02:40:31.940Z,37.60
2023-05-04T02:43:00.176Z,38.20
2023-05-04T02:45:30.072Z,38.20
2023-05-04T02:47:58.485Z,38.30
2023-05-04T02:50:26.786Z,38.50
2023-05-04T02:52:55.261Z,38.50
2023-05-04T02:55:23.569Z,39.10
2023-05-04T02:57:51.822Z,38.80
2023-05-04T03:00:20.444Z,38.90
2023-05-04T03:02:50.052Z,38.90
2023-05-04T03:05:18.511Z,38.70
2023-05-04T03:07:46.769Z,38.20
2023-05-04T03:10:15.291Z,38.10
2023-05-04T03:12:44.899Z,37.90
2023-05-04T03:15:13.278Z,37.30
2023-05-04T03:17:41.602Z,37.60
2023-05-04T03:20:13.452Z,37.40
2023-05-04T03:22:42.070Z,37.50
2023-05-04T03:25:10.905Z,37.20
2023-05-04T03:27:39.173Z,37.60
2023-05-04T03:30:08.735Z,37.80
2023-05-04T03:32:42.082Z,38.50
2023-05-04T03:35:12.964Z,38.30
2023-05-04T03:37:41.438Z,38.70
2023-05-04T03:40:10.487Z,38.60
2023-05-04T03:42:39.211Z,38.90
2023-05-04T03:45:08.751Z,38.90
2023-05-04T03:47:37.302Z,38.90
2023-05-04T03:50:06.540Z,39.00
2023-05-04T03:52:36.516Z,38.70
2023-05-04T03:55:05.404Z,38.80
2023-05-04T03:57:33.933Z,38.90
2023-05-04T04:00:02.305Z,38.70
2023-05-04T04:02:31.369Z,38.70
2023-05-04T04:04:59.695Z,38.80
2023-05-04T04:07:28.002Z,38.50
2023-05-04T04:09:57.527Z,38.90
2023-05-04T04:12:25.982Z,38.80
2023-05-04T04:14:54.215Z,38.40
2023-05-04T04:17:25.684Z,38.40
2023-05-04T04:19:53.966Z,38.40
2023-05-04T04:22:22.447Z,38.40
2023-05-04T04:24:50.978Z,38.70
2023-05-04T04:27:20.619Z,38.60
2023-05-04T04:29:48.842Z,38.40
2023-05-04T04:32:17.358Z,38.50
2023-05-04T04:34:45.521Z,38.80
2023-05-04T04:37:14.924Z,38.50
2023-05-04T04:39:43.160Z,38.90
2023-05-04T04:42:13.441Z,39.20
2023-05-04T04:44:43.237Z,39.30
2023-05-04T04:47:11.963Z,39.40
2023-05-04T04:49:40.468Z,39.20
2023-05-04T04:52:08.846Z,39.50
2023-05-04T04:54:37.230Z,39.10
2023-05-04T04:57:06.124Z,38.90
2023-05-04T04:59:34.473Z,38.50
2023-05-04T05:02:04.163Z,38.50
2023-05-04T05:04:32.444Z,38.40
2023-05-04T05:07:00.753Z,37.90
2023-05-04T05:09:29.020Z,38.30
2023-05-04T05:11:57.176Z,38.00
2023-05-04T05:14:26.197Z,38.10
2023-05-04T05:16:54.540Z,38.00
2023-05-04T05:19:24.461Z,38.20
2023-05-04T05:21:52.932Z,37.90
2023-05-04T05:24:21.128Z,38.10
2023-05-04T05:27:04.950Z,37.30
2023-05-04T05:29:33.488Z,37.50
2023-05-04T05:32:01.753Z,37.80
2023-05-04T05:34:31.396Z,37.60
2023-05-04T05:36:59.744Z,37.50
2023-05-04T05:39:28.987Z,37.70
2023-05-04T05:41:58.517Z,37.50
2023-05-04T05:44:26.784Z,37.60
2023-05-04T05:46:55.880Z,37.40
2023-05-04T05:49:25.332Z,37.10
2023-05-04T05:51:54.864Z,37.10
2023-05-04T05:54:23.846Z,37.10
2023-05-04T05:56:52.716Z,37.20
2023-05-04T05:59:21.109Z,37.30
2023-05-04T06:01:49.511Z,37.00
2023-05-04T06:04:18.078Z,37.10
2023-05-04T06:06:46.747Z,36.90
2023-05-04T06:09:16.874Z,35.50
2023-05-04T06:11:45.261Z,35.70
2023-05-04T06:14:20.523Z,35.60
2023-05-04T06:16:49.247Z,35.70
2023-05-04T06:19:18.472Z,35.50
2023-05-04T06:21:49.409Z,35.60
2023-05-04T06:24:18.985Z,35.70
2023-05-04T06:26:47.721Z,35.60
2023-05-04T06:29:16.356Z,35.40
2023-05-04T06:31:48.275Z,35.00
2023-05-04T06:34:17.896Z,35.40
2023-05-04T06:36:47.106Z,35.00
2023-05-04T06:39:16.012Z,35.30
2023-05-04T06:41:51.159Z,35.20
2023-05-04T06:44:20.296Z,34.90
2023-05-04T06:46:49.013Z,35.00
2023-05-04T06:49:19.208Z,34.80
2023-05-04T06:51:47.969Z,35.10
2023-05-04T06:54:16.330Z,35.10
2023-05-04T06:56:45.627Z,35.20
2023-05-04T06:59:16.892Z,34.90
2023-05-04T07:01:47.386Z,34.90
2023-05-04T07:04:17.039Z,34.70
2023-05-04T07:06:45.337Z,34.60
2023-05-04T07:09:14.368Z,33.40
2023-05-04T07:11:43.067Z,33.30
2023-05-04T07:14:12.957Z,33.20
2023-05-04T07:16:42.963Z,33.00
2023-05-04T07:19:11.669Z,32.50
2023-05-04T07:21:40.138Z,32.60
2023-05-04T07:24:08.671Z,32.60
2023-05-04T07:26:37.319Z,32.50
2023-05-04T07:29:05.841Z,32.50
2023-05-04T07:31:35.423Z,31.90
2023-05-04T07:34:06.042Z,31.80
2023-05-04T07:36:36.209Z,31.90
2023-05-04T07:39:05.036Z,32.10
2023-05-04T07:41:35.063Z,31.80
2023-05-04T07:44:05.642Z,31.60
2023-05-04T07:46:34.315Z,31.70
2023-05-04T07:49:03.285Z,31.90
2023-05-04T07:51:34.422Z,31.90
2023-05-04T07:54:03.502Z,31.70
2023-05-04T07:56:31.918Z,31.50
2023-05-04T07:59:00.368Z,31.80
2023-05-04T08:01:28.942Z,30.70
2023-05-04T08:03:57.526Z,31.10
2023-05-04T08:06:26.182Z,30.90
2023-05-04T08:08:56.020Z,31.00
2023-05-04T08:11:24.604Z,29.40
2023-05-04T08:13:54.789Z,29.70
2023-05-04T08:16:24.411Z,29.50
2023-05-04T08:18:53.316Z,29.40
2023-05-04T08:21:21.987Z,29.60
2023-05-04T08:23:50.988Z,30.00
2023-05-04T08:26:20.905Z,29.60
2023-05-04T08:28:50.380Z,29.10
2023-05-04T08:31:18.997Z,29.40
2023-05-04T08:33:48.456Z,29.70
2023-05-04T08:36:16.815Z,29.00
2023-05-04T08:38:45.060Z,29.40
2023-05-04T08:41:14.257Z,29.50
2023-05-04T08:43:46.397Z,28.20
2023-05-04T08:46:16.390Z,28.20
2023-05-04T08:48:46.236Z,28.50
2023-05-04T08:51:16.076Z,27.60
2023-05-04T08:53:46.922Z,26.90
2023-05-04T08:56:16.693Z,26.30
2023-05-04T08:58:49.820Z,27.20
2023-05-04T09:01:20.227Z,25.50
2023-05-04T09:03:51.534Z,25.60
2023-05-04T09:06:21.394Z,24.00
2023-05-04T09:08:51.862Z,23.50
2023-05-04T09:11:21.260Z,22.70
2023-05-04T09:13:51.577Z,23.20
2023-05-04T09:16:21.091Z,22.90
2023-05-04T09:18:49.390Z,23.60
2023-05-04T09:21:18.062Z,22.20
2023-05-04T09:23:48.157Z,21.00
2023-05-04T09:26:16.488Z,20.30
2023-05-04T09:28:45.136Z,20.90
2023-05-04T09:31:15.091Z,20.80
2023-05-04T09:33:44.663Z,21.20
2023-05-04T09:36:17.397Z,21.00
2023-05-04T09:38:46.076Z,19.70
2023-05-04T09:41:15.324Z,20.10
2023-05-04T09:43:45.103Z,19.90
2023-05-04T09:46:19.362Z,19.30
2023-05-04T09:48:54.132Z,19.20
2023-05-04T09:51:24.908Z,18.90
2023-05-04T09:53:54.817Z,19.00
2023-05-04T09:56:34.071Z,19.60
2023-05-04T09:59:02.814Z,19.50
2023-05-04T10:01:52.372Z,19.10
2023-05-04T10:04:21.843Z,18.40
2023-05-04T10:06:50.674Z,18.40
2023-05-04T10:09:20.857Z,19.10
2023-05-04T10:11:50.408Z,19.70
2023-05-04T10:14:19.812Z,18.90
2023-05-04T10:16:58.165Z,17.60
2023-05-04T10:19:41.844Z,17.50
2023-05-04T10:22:26.552Z,17.00
2023-05-04T10:25:09.305Z,17.10
2023-05-04T10:27:46.654Z,18.70
2023-05-04T10:30:18.499Z,19.00
2023-05-04T10:32:55.987Z,18.90
2023-05-04T10:35:25.257Z,17.20
2023-05-04T10:37:55.147Z,16.00
2023-05-04T10:40:37.946Z,15.50
2023-05-04T10:43:07.997Z,16.00
2023-05-04T10:45:38.194Z,16.10
2023-05-04T10:48:08.914Z,17.10
2023-05-04T10:50:44.503Z,16.60
2023-05-04T10:53:13.235Z,16.80
2023-05-04T10:55:45.386Z,17.10
2023-05-04T10:58:16.960Z,16.30
2023-05-04T11:00:47.054Z,16.40
2023-05-04T11:03:17.450Z,16.00
2023-05-04T11:05:47.535Z,14.50
2023-05-04T11:08:19.774Z,14.40
2023-05-04T11:10:48.649Z,14.10
2023-05-04T11:13:17.637Z,14.60
2023-05-04T11:15:52.086Z,14.80
2023-05-04T11:18:31.059Z,14.50
2023-05-04T11:21:00.071Z,14.70
2023-05-04T11:23:29.390Z,15.20
2023-05-04T11:25:58.058Z,14.20
2023-05-04T11:28:34.779Z,14.20
2023-05-04T11:31:12.767Z,14.20
2023-05-04T11:33:51.654Z,15.40
2023-05-04T11:36:21.290Z,15.60
2023-05-04T11:38:50.391Z,14.20
2023-05-04T11:41:18.931Z,13.40
2023-05-04T11:43:48.265Z,13.20
2023-05-04T11:46:17.336Z,12.80
2023-05-04T11:48:46.144Z,13.60
2023-05-04T11:51:15.966Z,13.20
2023-05-04T11:53:44.126Z,13.70
2023-05-04T11:56:12.994Z,14.40
2023-05-04T11:58:42.127Z,14.50
2023-05-04T12:01:11.039Z,14.70
2023-05-04T12:03:51.959Z,14.60
2023-05-04T12:06:32.288Z,14.20
2023-05-04T12:09:05.750Z,14.70
2023-05-04T12:11:35.738Z,14.00
2023-05-04T12:14:06.450Z,14.00
2023-05-04T12:16:35.778Z,15.00
2023-05-04T12:19:06.319Z,15.40
2023-05-04T12:21:37.123Z,15.00
2023-05-04T12:24:07.070Z,15.10
2023-05-04T12:26:37.132Z,14.40
2023-05-04T12:29:06.044Z,14.30
2023-05-04T12:31:35.080Z,14.40
2023-05-04T12:34:03.297Z,14.10
2023-05-04T12:36:31.599Z,13.60
2023-05-04T12:39:01.978Z,13.60
2023-05-04T12:41:31.533Z,14.60
2023-05-04T12:44:00.595Z,13.90
2023-05-04T12:46:30.143Z,13.40
2023-05-04T12:48:59.238Z,14.10
2023-05-04T12:51:27.614Z,13.80
2023-05-04T12:53:57.791Z,13.00
2023-05-04T12:56:27.651Z,13.60
2023-05-04T12:58:56.565Z,14.00
2023-05-04T13:01:25.158Z,13.60
2023-05-04T13:03:53.498Z,13.20
2023-05-04T13:06:22.345Z,12.90
2023-05-04T13:08:51.385Z,13.30
2023-05-04T13:11:20.284Z,13.10
2023-05-04T13:13:49.875Z,12.90
2023-05-04T13:16:19.137Z,12.80
2023-05-04T13:18:48.575Z,12.70
2023-05-04T13:21:18.163Z,12.50
2023-05-04T13:23:46.458Z,12.20
2023-05-04T13:26:14.666Z,12.50
2023-05-04T13:28:43.653Z,12.60
2023-05-04T13:31:13.769Z,12.40
2023-05-04T13:33:43.007Z,12.40
2023-05-04T13:36:11.575Z,13.60
2023-05-04T13:38:40.519Z,12.60
2023-05-04T13:41:09.489Z,13.20
2023-05-04T13:43:37.827Z,13.70
2023-05-04T13:46:07.117Z,13.60
2023-05-04T13:48:37.272Z,13.40
2023-05-04T13:51:06.415Z,14.00
2023-05-04T13:53:35.799Z,13.80
2023-05-04T13:56:04.843Z,13.40
2023-05-04T13:58:33.950Z,13.80
2023-05-04T14:01:03.485Z,13.50
2023-05-04T14:03:32.861Z,13.40
2023-05-04T14:06:02.483Z,13.90
2023-05-04T14:08:30.919Z,13.70
2023-05-04T14:10:59.442Z,13.90
2023-05-04T14:13:28.435Z,14.30
2023-05-04T14:15:58.273Z,13.40
2023-05-04T14:18:28.749Z,12.90
2023-05-04T14:20:58.782Z,13.60
2023-05-04T14:23:29.254Z,13.40
2023-05-04T14:25:58.228Z,13.20
2023-05-04T14:28:27.100Z,13.60
2023-05-04T14:30:56.308Z,14.10
2023-05-04T14:33:26.825Z,13.70
2023-05-04T14:35:55.192Z,13.40
2023-05-04T14:38:24.649Z,13.20
2023-05-04T14:40:55.605Z,13.00
2023-05-04T14:43:25.338Z,13.10
2023-05-04T14:45:53.879Z,13.30
2023-05-04T14:48:24.230Z,14.00
2023-05-04T14:50:52.629Z,14.20
2023-05-04T14:53:21.740Z,14.50
2023-05-04T14:55:50.791Z,13.20
2023-05-04T14:58:21.380Z,13.90
2023-05-04T15:00:50.350Z,13.90
2023-05-04T15:03:19.381Z,14.20
2023-05-04T15:05:48.033Z,14.30
2023-05-04T15:08:17.035Z,14.80
2023-05-04T15:10:46.507Z,14.40
2023-05-04T15:13:15.967Z,14.00
2023-05-04T15:15:46.393Z,14.10
2023-05-04T15:18:14.725Z,14.10
2023-05-04T15:20:44.332Z,14.70
2023-05-04T15:23:14.117Z,14.60
2023-05-04T15:25:43.419Z,14.90
2023-05-04T15:28:11.960Z,14.60
2023-05-04T15:30:42.787Z,14.30
2023-05-04T15:33:17.014Z,14.30
2023-05-04T15:35:45.842Z,14.30
2023-05-04T15:38:14.620Z,14.50
2023-05-04T15:40:44.072Z,14.60
2023-05-04T15:43:14.193Z,14.60
2023-05-04T15:45:42.415Z,14.60
2023-05-04T15:48:12.301Z,15.20
2023-05-04T15:50:41.241Z,15.20
2023-05-04T15:53:10.527Z,14.90
2023-05-04T15:55:39.070Z,14.80
2023-05-04T15:58:08.318Z,14.80
2023-05-04T16:00:40.228Z,14.90
2023-05-04T16:03:09.143Z,14.30
2023-05-04T16:05:39.169Z,14.40
2023-05-04T16:08:07.732Z,14.70
2023-05-04T16:10:36.253Z,14.60
2023-05-04T16:13:05.676Z,14.80
2023-05-04T16:15:34.967Z,15.00
2023-05-04T16:18:03.413Z,14.70
2023-05-04T16:20:32.089Z,14.70
2023-05-04T16:23:01.812Z,15.10
2023-05-04T16:25:30.224Z,14.40
2023-05-04T16:27:58.715Z,14.20
2023-05-04T16:30:33.484Z,14.40
2023-05-04T16:33:02.841Z,14.40
2023-05-04T16:35:32.430Z,14.80
2023-05-04T16:38:03.773Z,14.90
2023-05-04T16:40:33.292Z,15.00
2023-05-04T16:43:02.366Z,15.00
2023-05-04T16:45:32.901Z,15.30
2023-05-04T16:48:01.657Z,15.20
2023-05-04T16:50:30.031Z,15.60
2023-05-04T16:53:19.800Z,15.50
2023-05-04T16:55:48.278Z,15.40
2023-05-04T16:58:16.789Z,15.30
2023-05-04T17:00:46.924Z,15.60
2023-05-04T17:03:15.387Z,16.10
2023-05-04T17:05:44.007Z,15.60
2023-05-04T17:08:13.665Z,16.00
2023-05-04T17:10:43.470Z,16.00
2023-05-04T17:13:14.944Z,16.10
2023-05-04T17:15:43.992Z,15.90
2023-05-04T17:18:20.457Z,16.50
2023-05-04T17:20:48.880Z,16.60
2023-05-04T17:23:17.929Z,16.70
2023-05-04T17:25:47.778Z,16.90
2023-05-04T17:28:16.500Z,17.10
2023-05-04T17:30:45.242Z,17.20
2023-05-04T17:33:13.615Z,17.00
2023-05-04T17:35:42.012Z,17.10
2023-05-04T17:38:11.394Z,17.80
2023-05-04T17:40:40.517Z,17.30
2023-05-04T17:43:10.492Z,17.20
2023-05-04T17:45:39.879Z,17.10
2023-05-04T17:48:09.580Z,17.20
2023-05-04T17:50:40.557Z,16.60
2023-05-04T17:53:10.610Z,17.20
2023-05-04T17:55:39.374Z,17.10
2023-05-04T17:58:07.786Z,17.50
2023-05-04T18:00:37.801Z,17.20
2023-05-04T18:03:07.134Z,17.40
2023-05-04T18:05:36.745Z,18.00
2023-05-04T18:08:06.918Z,18.00
2023-05-04T18:10:39.215Z,17.60
2023-05-04T18:13:07.673Z,18.10
2023-05-04T18:15:37.801Z,19.50
2023-05-04T18:18:07.293Z,19.50
2023-05-04T18:20:35.766Z,19.50
2023-05-04T18:23:07.728Z,19.40
2023-05-04T18:25:37.634Z,20.00
2023-05-04T18:28:08.059Z,19.70
2023-05-04T18:30:38.582Z,20.10
2023-05-04T18:33:07.094Z,20.30
2023-05-04T18:35:35.984Z,20.30
2023-05-04T18:38:04.333Z,20.60
2023-05-04T18:40:32.685Z,20.80
2023-05-04T18:43:02.180Z,20.60
2023-05-04T18:45:30.685Z,21.00
2023-05-04T18:48:01.164Z,21.60
2023-05-04T18:50:29.757Z,21.50
2023-05-04T18:52:57.940Z,21.70
2023-05-04T18:55:26.902Z,21.70
2023-05-04T18:57:55.647Z,21.70
2023-05-04T19:00:24.287Z,21.90
2023-05-04T19:02:53.142Z,22.20
2023-05-04T19:05:24.075Z,22.20
2023-05-04T19:07:52.379Z,22.30
2023-05-04T19:10:20.973Z,22.80
2023-05-04T19:12:51.289Z,22.70
2023-05-04T19:15:21.301Z,22.80
2023-05-04T19:17:50.512Z,23.20
2023-05-04T19:20:20.225Z,23.10
2023-05-04T19:22:50.175Z,23.30
2023-05-04T19:25:30.955Z,23.20
2023-05-04T19:28:08.745Z,23.70
2023-05-04T19:30:37.666Z,23.60
2023-05-04T19:33:08.308Z,23.80
2023-05-04T19:35:37.461Z,23.50
2023-05-04T19:38:09.032Z,23.80
2023-05-04T19:40:37.275Z,24.00
2023-05-04T19:43:06.009Z,24.00
2023-05-04T19:45:36.072Z,24.10
2023-05-04T19:48:05.067Z,23.70
2023-05-04T19:50:33.947Z,24.00
2023-05-04T19:53:05.061Z,24.00
2023-05-04T19:55:36.218Z,23.80
2023-05-04T19:58:04.825Z,23.80
2023-05-04T20:00:33.582Z,24.10
2023-05-04T20:03:02.146Z,24.60
2023-05-04T20:05:31.166Z,24.60
2023-05-04T20:08:00.692Z,24.70
2023-05-04T20:10:31.967Z,25.00
2023-05-04T20:13:02.047Z,24.90
2023-05-04T20:15:30.717Z,25.10
2023-05-04T20:17:59.602Z,25.30
2023-05-04T20:20:28.184Z,25.30
2023-05-04T20:22:57.387Z,24.90
2023-05-04T20:25:28.788Z,25.00
2023-05-04T20:27:57.148Z,25.40
2023-05-04T20:30:28.699Z,25.50
2023-05-04T20:32:58.863Z,25.40
2023-05-04T20:35:27.063Z,26.80
2023-05-04T20:38:11.593Z,27.00
2023-05-04T20:40:40.022Z,26.90
2023-05-04T20:43:08.754Z,27.10
2023-05-04T20:45:38.344Z,26.90
2023-05-04T20:48:07.050Z,27.20
2023-05-04T20:50:35.944Z,26.90
2023-05-04T20:53:04.457Z,27.30
2023-05-04T20:55:33.056Z,27.30
2023-05-04T20:58:02.213Z,27.60
2023-05-04T21:00:31.905Z,27.30
2023-05-04T21:03:03.587Z,27.50
2023-05-04T21:05:31.966Z,27.60
2023-05-04T21:08:01.878Z,27.80
2023-05-04T21:10:30.234Z,27.90
2023-05-04T21:13:00.064Z,27.90
2023-05-04T21:15:28.272Z,27.90
2023-05-04T21:17:56.773Z,27.90
2023-05-04T21:20:26.757Z,28.30
2023-05-04T21:22:55.113Z,28.10
2023-05-04T21:25:23.420Z,28.00
2023-05-04T21:27:51.653Z,28.30
2023-05-04T21:30:20.197Z,28.20
2023-05-04T21:32:49.151Z,28.10
2023-05-04T21:35:21.142Z,28.20
2023-05-04T21:37:50.803Z,28.40
2023-05-04T21:40:19.799Z,28.50
2023-05-04T21:42:48.088Z,28.20
2023-05-04T21:45:16.723Z,28.60
2023-05-04T21:47:44.917Z,28.80
2023-05-04T21:50:13.570Z,28.80
2023-05-04T21:52:42.058Z,28.60
2023-05-04T21:55:12.093Z,28.80
2023-05-04T21:57:40.912Z,28.90
2023-05-04T22:00:12.526Z,29.10
2023-05-04T22:02:44.567Z,29.10
2023-05-04T22:05:14.222Z,29.60
2023-05-04T22:07:57.943Z,29.50
2023-05-04T22:10:28.094Z,29.20
2023-05-04T22:12:56.311Z,29.60
2023-05-04T22:15:31.666Z,29.40
2023-05-04T22:18:07.344Z,29.40
2023-05-04T22:20:36.032Z,29.50
2023-05-04T22:23:04.464Z,29.60
2023-05-04T22:25:34.193Z,29.70
2023-05-04T22:28:02.530Z,30.00
2023-05-04T22:30:32.757Z,30.00
2023-05-04T22:33:01.254Z,29.80
2023-05-04T22:35:31.433Z,30.10
2023-05-04T22:38:00.823Z,30.00
2023-05-04T22:40:29.168Z,30.20
2023-05-04T22:43:07.225Z,29.80
2023-05-04T22:45:36.463Z,30.10
2023-05-04T22:48:05.239Z,30.20
2023-05-04T22:50:34.126Z,30.10
2023-05-04T22:53:02.594Z,30.30
2023-05-04T22:55:31.045Z,30.40
2023-05-04T22:58:00.855Z,30.40
2023-05-04T23:00:29.503Z,30.40
2023-05-04T23:02:58.378Z,30.40
2023-05-04T23:05:27.854Z,30.30
2023-05-04T23:07:56.745Z,30.70
2023-05-04T23:10:25.075Z,31.00
2023-05-04T23:12:53.505Z,31.00
2023-05-04T23:15:24.513Z,30.80
2023-05-04T23:17:53.624Z,30.90
2023-05-04T23:20:22.293Z,30.50
2023-05-04T23:22:51.155Z,30.80
2023-05-04T23:25:19.473Z,30.90
2023-05-04T23:27:48.340Z,30.90
2023-05-04T23:30:17.804Z,31.20
2023-05-04T23:32:48.036Z,31.30
2023-05-04T23:35:16.883Z,31.00
2023-05-04T23:37:45.366Z,31.60
2023-05-04T23:40:13.691Z,31.10
2023-05-04T23:42:42.980Z,31.40
2023-05-04T23:45:12.321Z,31.50
2023-05-04T23:47:41.083Z,32.70
2023-05-04T23:50:11.729Z,31.70
2023-05-04T23:52:39.981Z,32.60
2023-05-04T23:55:08.563Z,33.00
2023-05-04T23:57:37.676Z,33.30
